^^
Saratoga-Weather Station Historical Data
Daily Summary for July 8, 2020 Units:  English    Metric   Both
Daily Weekly Monthly Yearly Custom
  High: Low: Average:
Temperature: 39.9 °F 29.8 °F 34.9 °F
Dew Point: 37 °F 28.6 °F 33.1 °F
Humidity: 96% 88% 93%
Wind Speed: 2mph 0mph 0.1mph
Wind Gust: 3mph - -
Wind- - SSE
Pressure: 30.2 in 30.2 in -
Precipitation: 0.01 in    
Historical Graphs
 
 
Tabular Data for July 8, 2020
Time Temperature Dew Point Pressure Wind Wind Speed Wind Gust Humidity Rainfall Rate (Hourly) solar
00:00 31.6 °F 29.7 °F 30.2 in Calm     92% 0 in 0 W/m2
00:05 31.6 °F 29.8 °F 30.2 in Calm     93% 0 in 0 W/m2
00:10 31.5 °F 29.7 °F 30.2 in Calm     93% 0 in 0 W/m2
00:15 31.5 °F 29.7 °F 30.2 in Calm     93% 0 in 0 W/m2
00:20 31.5 °F 29.7 °F 30.2 in Calm     93% 0 in 0 W/m2
00:25 31.5 °F 29.7 °F 30.2 in Calm     93% 0 in 0 W/m2
00:30 31.5 °F 29.7 °F 30.2 in Calm     93% 0 in 0 W/m2
00:35 31.3 °F 29.5 °F 30.2 in Calm     93% 0 in 0 W/m2
00:40 31.3 °F 29.5 °F 30.2 in Calm     93% 0 in 0 W/m2
00:45 31.1 °F 29.3 °F 30.2 in Calm     93% 0 in 0 W/m2
00:51 31.1 °F 29.7 °F 30.2 in Calm     94% 0 in 0 W/m2
00:56 30.9 °F 29.1 °F 30.2 in Calm     93% 0 in 0 W/m2
01:01 30.9 °F 29.1 °F 30.2 in Calm     93% 0 in 0 W/m2
01:06 30.7 °F 29.3 °F 30.2 in Calm     94% 0 in 0 W/m2
01:11 30.6 °F 28.8 °F 30.2 in Calm     93% 0 in 0 W/m2
01:16 30.6 °F 29.1 °F 30.2 in Calm     94% 0 in 0 W/m2
01:21 30.6 °F 29.1 °F 30.2 in Calm     94% 0 in 0 W/m2
01:26 30.7 °F 29.3 °F 30.2 in Calm     94% 0 in 0 W/m2
01:31 30.7 °F 29.3 °F 30.2 in Calm     94% 0 in 0 W/m2
01:36 30.7 °F 29.5 °F 30.2 in Calm     95% 0 in 0 W/m2
01:41 30.9 °F 29.5 °F 30.2 in Calm     94% 0 in 0 W/m2
01:46 30.7 °F 29.5 °F 30.2 in Calm     95% 0 in 0 W/m2
01:51 30.9 °F 29.7 °F 30.2 in Calm     95% 0 in 0 W/m2
01:56 30.9 °F 29.7 °F 30.2 in Calm     95% 0 in 0 W/m2
02:01 31.1 °F 29.8 °F 30.2 in Calm     95% 0 in 0 W/m2
02:06 31.3 °F 30 °F 30.2 in Calm     95% 0 in 0 W/m2
02:11 31.3 °F 30 °F 30.2 in Calm     95% 0 in 0 W/m2
02:17 31.3 °F 30 °F 30.2 in Calm     95% 0 in 0 W/m2
02:22 31.3 °F 30 °F 30.2 in Calm     95% 0 in 0 W/m2
02:27 31.3 °F 30 °F 30.2 in Calm     95% 0 in 0 W/m2
02:32 31.3 °F 30 °F 30.2 in Calm     95% 0 in 0 W/m2
02:37 31.3 °F 30 °F 30.2 in Calm     95% 0 in 0 W/m2
02:42 31.3 °F 30 °F 30.2 in Calm     95% 0 in 0 W/m2
02:47 31.1 °F 29.8 °F 30.2 in Calm     95% 0 in 0 W/m2
02:52 31.1 °F 29.8 °F 30.2 in Calm     95% 0 in 0 W/m2
02:57 30.9 °F 29.7 °F 30.2 in Calm     95% 0 in 0 W/m2
03:02 30.7 °F 29.5 °F 30.2 in Calm     95% 0 in 0 W/m2
03:07 30.7 °F 29.5 °F 30.2 in Calm     95% 0 in 0 W/m2
03:12 30.6 °F 29.3 °F 30.2 in Calm     95% 0 in 0 W/m2
03:17 30.6 °F 29.3 °F 30.2 in Calm     95% 0 in 0 W/m2
03:22 30.6 °F 29.3 °F 30.2 in Calm     95% 0 in 0 W/m2
03:27 30.6 °F 29.3 °F 30.2 in Calm     95% 0 in 0 W/m2
03:32 30.6 °F 29.3 °F 30.2 in Calm     95% 0 in 0 W/m2
03:37 30.6 °F 29.3 °F 30.2 in Calm     95% 0 in 0 W/m2
03:42 30.6 °F 29.3 °F 30.2 in Calm     95% 0 in 0 W/m2
03:47 30.6 °F 29.3 °F 30.2 in Calm     95% 0 in 0 W/m2
03:52 30.6 °F 29.3 °F 30.2 in Calm     95% 0 in 0 W/m2
03:57 30.6 °F 29.3 °F 30.2 in Calm     95% 0 in 0 W/m2
04:02 30.6 °F 29.3 °F 30.2 in Calm     95% 0 in 0 W/m2
04:08 30.6 °F 29.3 °F 30.2 in Calm     95% 0 in 0 W/m2
04:13 30.6 °F 29.3 °F 30.2 in Calm     95% 0 in 0 W/m2
04:18 30.7 °F 29.5 °F 30.2 in Calm     95% 0 in 0 W/m2
04:23 30.6 °F 29.3 °F 30.2 in Calm     95% 0 in 0 W/m2
04:28 30.6 °F 29.3 °F 30.2 in Calm     95% 0 in 0 W/m2
04:33 30.6 °F 29.3 °F 30.2 in Calm     95% 0 in 0 W/m2
04:38 30.4 °F 29.1 °F 30.2 in Calm     95% 0 in 0 W/m2
04:43 30.4 °F 29.1 °F 30.2 in Calm     95% 0 in 0 W/m2
04:48 30.2 °F 28.9 °F 30.2 in Calm     95% 0 in 0 W/m2
04:53 30.2 °F 28.9 °F 30.2 in Calm     95% 0 in 0 W/m2
04:58 30.4 °F 29.1 °F 30.2 in Calm   2 mph 95% 0 in 0 W/m2
05:03 30.4 °F 29.1 °F 30.2 in Calm     95% 0 in 0 W/m2
05:08 30.4 °F 29.1 °F 30.2 in Calm   2 mph 95% 0 in 0 W/m2
05:13 30.4 °F 29.1 °F 30.2 in Calm     95% 0 in 0 W/m2
05:18 30.2 °F 28.9 °F 30.2 in Calm     95% 0 in 0 W/m2
05:23 30 °F 28.8 °F 30.2 in Calm     95% 0 in 0 W/m2
05:28 30 °F 28.8 °F 30.2 in Calm     95% 0 in 0 W/m2
05:33 30 °F 28.8 °F 30.2 in Calm     95% 0 in 0 W/m2
05:38 30 °F 28.8 °F 30.2 in Calm     95% 0 in 0 W/m2
05:43 29.8 °F 28.6 °F 30.2 in Calm     95% 0 in 0 W/m2
05:48 29.8 °F 28.6 °F 30.2 in Calm     95% 0 in 0 W/m2
05:53 29.8 °F 28.8 °F 30.2 in Calm     96% 0 in 0 W/m2
05:59 30 °F 28.9 °F 30.2 in Calm     96% 0 in 0 W/m2
06:04 30.2 °F 29.1 °F 30.2 in Calm     96% 0 in 0 W/m2
06:09 30.4 °F 29.3 °F 30.2 in Calm     96% 0 in 0 W/m2
06:14 30.4 °F 29.3 °F 30.2 in Calm     96% 0 in 0 W/m2
06:19 30.4 °F 29.3 °F 30.2 in Calm     96% 0 in 0 W/m2
06:24 30.2 °F 29.1 °F 30.2 in Calm     96% 0 in 0 W/m2
06:29 30.2 °F 28.9 °F 30.2 in Calm     95% 0 in 0 W/m2
06:34 30 °F 28.8 °F 30.2 in Calm     95% 0 in 0 W/m2
06:39 30 °F 28.8 °F 30.2 in Calm     95% 0 in 0 W/m2
06:44 29.8 °F 28.6 °F 30.2 in Calm     95% 0 in 0 W/m2
06:49 29.8 °F 28.6 °F 30.2 in Calm     95% 0 in 0 W/m2
06:54 29.8 °F 28.8 °F 30.2 in Calm     96% 0 in 0 W/m2
06:59 29.8 °F 28.8 °F 30.2 in Calm     96% 0 in 0 W/m2
07:04 29.8 °F 28.8 °F 30.2 in Calm     96% 0 in 0 W/m2
07:09 30.2 °F 29.1 °F 30.2 in Calm     96% 0 in 0 W/m2
07:14 30.4 °F 29.3 °F 30.2 in Calm     96% 0 in 0 W/m2
07:19 30.6 °F 29.5 °F 30.2 in Calm     96% 0 in 0 W/m2
07:24 30.7 °F 29.7 °F 30.2 in Calm   1 mph 96% 0 in 0 W/m2
07:29 30.7 °F 29.7 °F 30.2 in Calm     96% 0 in 0 W/m2
07:34 30.9 °F 29.8 °F 30.2 in Calm   1 mph 96% 0 in 0 W/m2
07:39 31.1 °F 30 °F 30.2 in Calm     96% 0 in 0 W/m2
07:44 31.3 °F 30.2 °F 30.2 in Calm     96% 0 in 0 W/m2
07:49 31.3 °F 30.2 °F 30.2 in Calm     96% 0 in 0 W/m2
07:54 31.3 °F 30.2 °F 30.2 in Calm     96% 0 in 0 W/m2
07:59 31.5 °F 30.4 °F 30.2 in Calm     96% 0 in 0 W/m2
08:04 31.5 °F 30.4 °F 30.2 in Calm     96% 0 in 0 W/m2
08:09 31.5 °F 30.4 °F 30.2 in Calm     96% 0 in 0 W/m2
08:14 31.5 °F 30.4 °F 30.2 in Calm     96% 0 in 0 W/m2
08:19 31.6 °F 30.6 °F 30.2 in Calm     96% 0 in 0 W/m2
08:24 31.6 °F 30.6 °F 30.2 in Calm     96% 0 in 0 W/m2
08:29 31.6 °F 30.6 °F 30.2 in Calm     96% 0 in 0 W/m2
08:34 31.8 °F 30.7 °F 30.2 in Calm     96% 0 in 0 W/m2
08:39 31.8 °F 30.7 °F 30.2 in Calm     96% 0 in 0 W/m2
08:44 31.8 °F 30.7 °F 30.2 in Calm     96% 0 in 0 W/m2
08:49 32 °F 30.9 °F 30.2 in Calm     96% 0 in 0 W/m2
08:54 32.2 °F 31.1 °F 30.2 in Calm     96% 0 in 5 W/m2
08:59 32.2 °F 31.1 °F 30.2 in Calm     96% 0 in 0 W/m2
09:04 32.2 °F 31.1 °F 30.2 in ESE 2 mph 3 mph 96% 0 in 7 W/m2
09:09 32.4 °F 31.3 °F 30.2 in Calm     96% 0 in 11 W/m2
09:14 32.4 °F 31.3 °F 30.2 in Calm   3 mph 96% 0 in 14 W/m2
09:19 32.4 °F 31.3 °F 30.2 in ESE 0.9 mph 2 mph 96% 0 in 14 W/m2
09:24 32.4 °F 31.3 °F 30.2 in Calm   3 mph 96% 0 in 16 W/m2
09:29 32.5 °F 31.5 °F 30.2 in Calm     96% 0 in 16 W/m2
09:34 32.5 °F 31.5 °F 30.2 in Calm     96% 0 in 16 W/m2
09:39 32.5 °F 31.5 °F 30.2 in Calm   2 mph 96% 0 in 19 W/m2
09:44 32.7 °F 31.6 °F 30.2 in Calm   3 mph 96% 0 in 26 W/m2
09:49 32.7 °F 31.5 °F 30.2 in East 0.9 mph 1 mph 95% 0 in 30 W/m2
09:55 32.9 °F 31.6 °F 30.2 in Calm   3 mph 95% 0 in 32 W/m2
10:00 33.1 °F 31.8 °F 30.2 in Calm     95% 0.01 in 30 W/m2
10:05 33.1 °F 31.8 °F 30.2 in Calm     95% 0.01 in 30 W/m2
10:10 33.1 °F 31.8 °F 30.2 in Calm     95% 0.01 in 30 W/m2
10:15 33.3 °F 32 °F 30.2 in Calm   2 mph 95% 0.01 in 32 W/m2
10:20 33.3 °F 32 °F 30.2 in Calm     95% 0.01 in 30 W/m2
10:25 33.4 °F 32.2 °F 30.2 in Calm     95% 0.01 in 32 W/m2
10:30 33.6 °F 32.4 °F 30.2 in Calm     95% 0.01 in 32 W/m2
10:35 33.6 °F 32.4 °F 30.2 in East 0.9 mph 2 mph 95% 0.01 in 30 W/m2
10:40 33.8 °F 32.5 °F 30.2 in Calm     95% 0.01 in 26 W/m2
10:45 34 °F 32.7 °F 30.2 in Calm   2 mph 95% 0.01 in 28 W/m2
10:50 34 °F 32.4 °F 30.2 in Calm     94% 0.01 in 30 W/m2
10:55 34.2 °F 32.5 °F 30.2 in Calm     94% 0.01 in 35 W/m2
11:00 34.2 °F 32.9 °F 30.2 in Calm   2 mph 95% 0 in 39 W/m2
11:05 34.3 °F 32.7 °F 30.2 in Calm   1 mph 94% 0 in 40 W/m2
11:10 34.3 °F 32.7 °F 30.2 in East 2 mph 2 mph 94% 0 in 39 W/m2
11:15 34.5 °F 32.9 °F 30.2 in Calm     94% 0 in 42 W/m2
11:20 34.5 °F 32.9 °F 30.2 in Calm   2 mph 94% 0 in 46 W/m2
11:25 34.5 °F 32.9 °F 30.2 in Calm     94% 0 in 54 W/m2
11:30 34.9 °F 33.3 °F 30.2 in Calm     94% 0 in 56 W/m2
11:35 34.9 °F 33.3 °F 30.2 in Calm     94% 0 in 54 W/m2
11:40 34.9 °F 33.3 °F 30.2 in Calm     94% 0 in 56 W/m2
11:45 35.1 °F 33.3 °F 30.2 in ESE 0.9 mph 3 mph 93% 0 in 51 W/m2
11:50 35.2 °F 33.4 °F 30.2 in ESE 2 mph 2 mph 93% 0 in 51 W/m2
11:55 35.4 °F 33.6 °F 30.2 in ESE 0.9 mph 1 mph 93% 0 in 51 W/m2
12:00 35.4 °F 33.6 °F 30.2 in Calm     93% 0 in 44 W/m2
12:05 35.6 °F 33.8 °F 30.2 in Calm     93% 0 in 39 W/m2
12:10 35.8 °F 33.6 °F 30.2 in Calm     92% 0 in 40 W/m2
12:15 35.8 °F 33.6 °F 30.2 in Calm     92% 0 in 44 W/m2
12:20 36 °F 33.8 °F 30.2 in Calm     92% 0 in 39 W/m2
12:25 36 °F 33.8 °F 30.2 in Calm     92% 0 in 40 W/m2
12:30 36.1 °F 34 °F 30.2 in Calm     92% 0 in 42 W/m2
12:35 36.1 °F 34 °F 30.2 in Calm     92% 0 in 35 W/m2
12:40 36.3 °F 34.2 °F 30.2 in Calm     92% 0 in 33 W/m2
12:45 36.3 °F 34 °F 30.2 in Calm     91% 0 in 30 W/m2
12:50 36.5 °F 34.2 °F 30.2 in Calm     91% 0 in 32 W/m2
12:55 36.7 °F 34.3 °F 30.2 in Calm     91% 0 in 32 W/m2
13:00 36.7 °F 34.3 °F 30.2 in Calm   1 mph 91% 0 in 33 W/m2
13:05 36.7 °F 34.3 °F 30.2 in Calm   1 mph 91% 0 in 40 W/m2
13:10 36.9 °F 34.5 °F 30.2 in Calm   1 mph 91% 0 in 46 W/m2
13:15 36.9 °F 34.5 °F 30.2 in Calm   1 mph 91% 0 in 51 W/m2
13:21 36.9 °F 34.5 °F 30.2 in Calm     91% 0 in 58 W/m2
13:26 37 °F 34.7 °F 30.2 in Calm   1 mph 91% 0 in 58 W/m2
13:31 37 °F 34.3 °F 30.2 in East 0.9 mph 2 mph 90% 0 in 53 W/m2
13:36 37 °F 34.3 °F 30.2 in Calm   1 mph 90% 0 in 47 W/m2
13:41 37 °F 34.3 °F 30.2 in Calm   2 mph 90% 0 in 42 W/m2
13:46 37.2 °F 34.5 °F 30.2 in East 0.9 mph 1 mph 90% 0 in 44 W/m2
13:51 37.2 °F 34.5 °F 30.2 in ENE 0.9 mph 2 mph 90% 0 in 56 W/m2
13:56 37.4 °F 34.7 °F 30.2 in Calm     90% 0 in 53 W/m2
14:01 37.4 °F 34.7 °F 30.2 in Calm   1 mph 90% 0 in 63 W/m2
14:06 37.6 °F 34.9 °F 30.2 in Calm     90% 0 in 60 W/m2
14:11 37.8 °F 35.1 °F 30.2 in ENE 0.9 mph 1 mph 90% 0 in 62 W/m2
14:16 37.8 °F 35.1 °F 30.2 in Calm     90% 0 in 63 W/m2
14:21 37.9 °F 35.2 °F 30.2 in Calm     90% 0 in 62 W/m2
14:26 37.9 °F 35.2 °F 30.2 in West 0.9 mph 2 mph 90% 0 in 62 W/m2
14:31 37.9 °F 35.1 °F 30.2 in West 0.9 mph 2 mph 89% 0 in 70 W/m2
14:36 38.1 °F 35.4 °F 30.2 in West 0.9 mph 1 mph 90% 0 in 70 W/m2
14:41 38.1 °F 35.2 °F 30.2 in West 0.9 mph 1 mph 89% 0 in 67 W/m2
14:46 38.3 °F 35.4 °F 30.2 in WNW 2 mph 3 mph 89% 0 in 63 W/m2
14:51 38.5 °F 35.6 °F 30.2 in Calm   1 mph 89% 0 in 63 W/m2
14:57 38.7 °F 35.8 °F 30.2 in Calm     89% 0 in 58 W/m2
15:02 38.7 °F 35.8 °F 30.2 in Calm     89% 0 in 53 W/m2
15:07 38.7 °F 35.8 °F 30.2 in Calm     89% 0 in 49 W/m2
15:12 38.8 °F 36 °F 30.2 in Calm     89% 0 in 42 W/m2
15:17 38.8 °F 36 °F 30.2 in Calm     89% 0 in 35 W/m2
15:22 39 °F 36.1 °F 30.2 in Calm     89% 0 in 33 W/m2
15:27 39 °F 36.1 °F 30.2 in Calm   2 mph 89% 0 in 33 W/m2
15:32 39.2 °F 36.3 °F 30.2 in Calm     89% 0 in 32 W/m2
15:37 39.2 °F 36 °F 30.2 in Calm   2 mph 88% 0 in 30 W/m2
15:42 39.2 °F 36 °F 30.2 in Calm     88% 0 in 30 W/m2
15:47 39.4 °F 36.1 °F 30.2 in Calm     88% 0 in 23 W/m2
15:52 39.4 °F 36.1 °F 30.2 in Calm     88% 0 in 25 W/m2
15:57 39.4 °F 36.1 °F 30.2 in Calm     88% 0 in 30 W/m2
16:02 39.4 °F 36.1 °F 30.2 in Calm     88% 0 in 33 W/m2
16:07 39.6 °F 36.3 °F 30.2 in Calm     88% 0 in 33 W/m2
16:12 39.6 °F 36.3 °F 30.2 in Calm     88% 0 in 33 W/m2
16:17 39.6 °F 36.5 °F 30.2 in Calm     89% 0 in 32 W/m2
16:22 39.6 °F 36.3 °F 30.2 in Calm   1 mph 88% 0 in 26 W/m2
16:27 39.7 °F 36.5 °F 30.2 in Calm     88% 0 in 28 W/m2
16:32 39.7 °F 36.5 °F 30.2 in Calm     88% 0 in 26 W/m2
16:37 39.7 °F 36.5 °F 30.2 in Calm     88% 0 in 28 W/m2
16:42 39.7 °F 36.5 °F 30.2 in Calm     88% 0 in 28 W/m2
16:47 39.7 °F 36.5 °F 30.2 in Calm     88% 0 in 26 W/m2
16:52 39.7 °F 36.5 °F 30.2 in Calm     88% 0 in 25 W/m2
16:57 39.7 °F 36.5 °F 30.2 in Calm     88% 0 in 21 W/m2
17:02 39.9 °F 36.9 °F 30.2 in Calm     89% 0 in 19 W/m2
17:07 39.9 °F 36.9 °F 30.2 in Calm     89% 0 in 21 W/m2
17:12 39.7 °F 36.7 °F 30.2 in Calm     89% 0 in 23 W/m2
17:17 39.9 °F 36.9 °F 30.2 in Calm     89% 0 in 21 W/m2
17:22 39.7 °F 36.7 °F 30.2 in Calm     89% 0 in 18 W/m2
17:27 39.7 °F 36.7 °F 30.2 in Calm     89% 0 in 14 W/m2
17:32 39.7 °F 36.7 °F 30.2 in Calm     89% 0 in 11 W/m2
17:37 39.6 °F 36.5 °F 30.2 in Calm     89% 0 in 5 W/m2
17:42 39.6 °F 36.5 °F 30.2 in Calm     89% 0 in 0 W/m2
17:47 39.4 °F 36.5 °F 30.2 in Calm     89% 0 in 0 W/m2
17:52 39.2 °F 36.5 °F 30.2 in Calm     90% 0 in 0 W/m2
17:57 39 °F 36.3 °F 30.2 in Calm     90% 0 in 0 W/m2
18:02 39 °F 36.3 °F 30.2 in Calm     90% 0 in 0 W/m2
18:07 39 °F 36.3 °F 30.2 in Calm     90% 0 in 0 W/m2
18:12 38.8 °F 36.5 °F 30.2 in Calm     91% 0 in 0 W/m2
18:17 38.8 °F 36.5 °F 30.2 in Calm     91% 0 in 0 W/m2
18:22 38.8 °F 36.5 °F 30.2 in Calm     91% 0 in 0 W/m2
18:27 38.8 °F 36.5 °F 30.2 in Calm     91% 0 in 0 W/m2
18:32 38.8 °F 36.5 °F 30.2 in Calm     91% 0 in 0 W/m2
18:37 38.7 °F 36.3 °F 30.2 in Calm     91% 0 in 0 W/m2
18:42 38.7 °F 36.3 °F 30.2 in Calm     91% 0 in 0 W/m2
18:47 38.5 °F 36.1 °F 30.2 in Calm     91% 0 in 0 W/m2
18:52 38.5 °F 36.1 °F 30.2 in Calm     91% 0 in 0 W/m2
18:57 38.5 °F 36.3 °F 30.2 in Calm     92% 0 in 0 W/m2
19:02 38.3 °F 36.1 °F 30.2 in Calm     92% 0 in 0 W/m2
19:07 38.5 °F 36.3 °F 30.2 in Calm   1 mph 92% 0 in 0 W/m2
19:12 38.5 °F 36.3 °F 30.2 in Calm     92% 0 in 0 W/m2
19:17 38.5 °F 36.3 °F 30.2 in Calm   1 mph 92% 0 in 0 W/m2
19:22 38.5 °F 36.7 °F 30.2 in Calm     93% 0 in 0 W/m2
19:27 38.5 °F 36.7 °F 30.2 in Calm     93% 0 in 0 W/m2
19:32 38.5 °F 36.7 °F 30.2 in Calm     93% 0 in 0 W/m2
19:37 38.5 °F 36.7 °F 30.2 in Calm     93% 0 in 0 W/m2
19:42 38.5 °F 36.7 °F 30.2 in Calm     93% 0 in 0 W/m2
19:47 38.3 °F 36.5 °F 30.2 in Calm     93% 0 in 0 W/m2
19:52 38.1 °F 36.3 °F 30.2 in Calm     93% 0 in 0 W/m2
19:57 38.1 °F 36.3 °F 30.2 in Calm     93% 0 in 0 W/m2
20:03 38.1 °F 36.3 °F 30.2 in Calm     93% 0 in 0 W/m2
20:08 38.1 °F 36.3 °F 30.2 in Calm     93% 0 in 0 W/m2
20:13 38.3 °F 36.5 °F 30.2 in Calm     93% 0 in 0 W/m2
20:18 38.3 °F 36.5 °F 30.2 in Calm     93% 0 in 0 W/m2
20:23 38.5 °F 36.9 °F 30.2 in Calm     94% 0 in 0 W/m2
20:28 38.5 °F 36.9 °F 30.2 in Calm     94% 0 in 0 W/m2
20:33 38.5 °F 36.9 °F 30.2 in Calm     94% 0 in 0 W/m2
20:38 38.5 °F 36.9 °F 30.2 in Calm     94% 0 in 0 W/m2
20:43 38.7 °F 37 °F 30.2 in Calm     94% 0 in 0 W/m2
20:48 38.7 °F 37 °F 30.2 in Calm     94% 0 in 0 W/m2
20:53 38.7 °F 37 °F 30.2 in Calm     94% 0 in 0 W/m2
20:58 38.7 °F 37 °F 30.2 in Calm     94% 0 in 0 W/m2
21:03 38.7 °F 37 °F 30.2 in Calm     94% 0 in 0 W/m2
21:08 38.7 °F 37 °F 30.2 in Calm     94% 0 in 0 W/m2
21:13 38.7 °F 37 °F 30.2 in Calm     94% 0 in 0 W/m2
21:18 38.7 °F 37 °F 30.2 in Calm   1 mph 94% 0 in 0 W/m2
21:23 38.7 °F 37 °F 30.2 in Calm     94% 0 in 0 W/m2
21:28 38.7 °F 37 °F 30.2 in Calm     94% 0 in 0 W/m2
21:33 38.7 °F 37 °F 30.2 in Calm     94% 0 in 0 W/m2
21:38 38.7 °F 37 °F 30.2 in WNW 0.9 mph 1 mph 94% 0 in 0 W/m2
21:43 38.7 °F 37 °F 30.2 in Calm   1 mph 94% 0 in 0 W/m2
21:48 38.7 °F 37 °F 30.2 in Calm   1 mph 94% 0 in 0 W/m2
21:53 38.7 °F 37 °F 30.2 in Calm     94% 0 in 0 W/m2
21:58 38.5 °F 36.9 °F 30.2 in Calm     94% 0 in 0 W/m2
22:03 38.5 °F 36.7 °F 30.2 in Calm   1 mph 93% 0 in 0 W/m2
22:08 38.1 °F 36.3 °F 30.2 in Calm     93% 0 in 0 W/m2
22:13 37.9 °F 36.1 °F 30.2 in Calm     93% 0 in 0 W/m2
22:18 37.8 °F 36 °F 30.2 in Calm     93% 0 in 0 W/m2
22:23 37.6 °F 35.8 °F 30.2 in Calm     93% 0 in 0 W/m2
22:28 37.4 °F 35.6 °F 30.2 in Calm     93% 0 in 0 W/m2
22:33 37.2 °F 35.4 °F 30.2 in Calm     93% 0 in 0 W/m2
22:38 37 °F 35.4 °F 30.2 in Calm     94% 0 in 0 W/m2
22:43 37 °F 35.4 °F 30.2 in Calm     94% 0 in 0 W/m2
22:48 36.9 °F 35.2 °F 30.2 in Calm     94% 0 in 0 W/m2
22:53 36.9 °F 35.2 °F 30.2 in Calm     94% 0 in 0 W/m2
22:59 36.9 °F 35.2 °F 30.2 in Calm     94% 0 in 0 W/m2
23:04 36.9 °F 35.2 °F 30.2 in Calm     94% 0 in 0 W/m2
23:09 36.9 °F 35.2 °F 30.2 in Calm     94% 0 in 0 W/m2
23:14 36.9 °F 35.6 °F 30.2 in Calm     95% 0 in 0 W/m2
23:19 37 °F 35.8 °F 30.2 in Calm     95% 0 in 0 W/m2
23:24 37.2 °F 36 °F 30.2 in Calm   1 mph 95% 0 in 0 W/m2
23:29 37.4 °F 36.1 °F 30.2 in Calm     95% 0 in 0 W/m2
23:34 37.6 °F 36.3 °F 30.2 in Calm     95% 0 in 0 W/m2
23:39 37.8 °F 36.5 °F 30.2 in Calm     95% 0 in 0 W/m2
23:44 37.6 °F 36.3 °F 30.2 in Calm     95% 0 in 0 W/m2
23:49 37.8 °F 36.5 °F 30.2 in Calm   1 mph 95% 0 in 0 W/m2
23:54 37.9 °F 36.7 °F 30.2 in WNW 2 mph 3 mph 95% 0 in 0 W/m2
23:59 38.1 °F 36.9 °F 30.2 in Calm   1 mph 95% 0 in 0 W/m2
Juneau County Weather
Compliments of Weather Underground - 4 mb